sensor_id;sensor_type;location;lat;lon;timestamp;temperature;humidity
24011;DHT22;12217;50.792;4.372;2023-08-01T00:01:28;17.60;99.90
24011;DHT22;12217;50.792;4.372;2023-08-01T00:03:54;17.70;99.90
24011;DHT22;12217;50.792;4.372;2023-08-01T00:06:19;17.70;99.90
24011;DHT22;12217;50.792;4.372;2023-08-01T00:08:45;17.60;99.90
24011;DHT22;12217;50.792;4.372;2023-08-01T00:11:11;17.50;99.90
24011;DHT22;12217;50.792;4.372;2023-08-01T00:13:39;17.50;99.90
24011;DHT22;12217;50.792;4.372;2023-08-01T00:16:05;17.60;99.90
24011;DHT22;12217;50.792;4.372;2023-08-01T00:18:30;17.60;99.90
24011;DHT22;12217;50.792;4.372;2023-08-01T00:20:56;17.70;99.90
24011;DHT22;12217;50.792;4.372;2023-08-01T00:23:22;17.80;99.90
24011;DHT22;12217;50.792;4.372;2023-08-01T00:25:47;17.80;99.90
24011;DHT22;12217;50.792;4.372;2023-08-01T00:28:22;17.80;99.90
24011;DHT22;12217;50.792;4.372;2023-08-01T00:30:48;17.80;99.90
24011;DHT22;12217;50.792;4.372;2023-08-01T00:33:13;17.90;99.90
24011;DHT22;12217;50.792;4.372;2023-08-01T00:35:40;17.70;99.90
24011;DHT22;12217;50.792;4.372;2023-08-01T00:38:06;17.80;99.90
24011;DHT22;12217;50.792;4.372;2023-08-01T00:40:33;17.60;99.90
24011;DHT22;12217;50.792;4.372;2023-08-01T00:42:59;17.40;99.90
24011;DHT22;12217;50.792;4.372;2023-08-01T00:45:26;17.60;99.90
24011;DHT22;12217;50.792;4.372;2023-08-01T00:47:53;17.60;99.90
24011;DHT22;12217;50.792;4.372;2023-08-01T00:50:19;17.60;99.90
24011;DHT22;12217;50.792;4.372;2023-08-01T00:52:46;17.70;99.90
24011;DHT22;12217;50.792;4.372;2023-08-01T00:55:12;17.50;99.90
24011;DHT22;12217;50.792;4.372;2023-08-01T00:57:38;17.40;99.90
24011;DHT22;12217;50.792;4.372;2023-08-01T01:00:04;17.40;99.90
24011;DHT22;12217;50.792;4.372;2023-08-01T01:02:30;17.50;99.90
24011;DHT22;12217;50.792;4.372;2023-08-01T01:04:56;17.40;99.90
24011;DHT22;12217;50.792;4.372;2023-08-01T01:07:22;17.40;99.90
24011;DHT22;12217;50.792;4.372;2023-08-01T01:09:50;17.60;99.90
24011;DHT22;12217;50.792;4.372;2023-08-01T01:12:16;17.70;99.90
24011;DHT22;12217;50.792;4.372;2023-08-01T01:14:41;17.60;99.90
24011;DHT22;12217;50.792;4.372;2023-08-01T01:17:07;17.80;99.90
24011;DHT22;12217;50.792;4.372;2023-08-01T01:19:32;17.70;99.90
24011;DHT22;12217;50.792;4.372;2023-08-01T01:21:58;17.70;99.90
24011;DHT22;12217;50.792;4.372;2023-08-01T01:24:25;17.60;99.90
24011;DHT22;12217;50.792;4.372;2023-08-01T01:26:51;17.50;99.90
24011;DHT22;12217;50.792;4.372;2023-08-01T01:29:18;17.40;99.90
24011;DHT22;12217;50.792;4.372;2023-08-01T01:31:45;17.30;99.90
24011;DHT22;12217;50.792;4.372;2023-08-01T01:34:11;17.40;99.90
24011;DHT22;12217;50.792;4.372;2023-08-01T01:36:37;17.30;99.90
24011;DHT22;12217;50.792;4.372;2023-08-01T01:39:03;17.20;99.90
24011;DHT22;12217;50.792;4.372;2023-08-01T01:41:28;17.20;99.90
24011;DHT22;12217;50.792;4.372;2023-08-01T01:43:54;17.30;99.90
24011;DHT22;12217;50.792;4.372;2023-08-01T01:46:19;17.20;99.90
24011;DHT22;12217;50.792;4.372;2023-08-01T01:48:45;17.20;99.90
24011;DHT22;12217;50.792;4.372;2023-08-01T01:51:10;17.20;99.90
24011;DHT22;12217;50.792;4.372;2023-08-01T01:53:36;17.30;99.90
24011;DHT22;12217;50.792;4.372;2023-08-01T01:56:01;17.30;99.90
24011;DHT22;12217;50.792;4.372;2023-08-01T01:58:27;17.30;99.90
24011;DHT22;12217;50.792;4.372;2023-08-01T02:00:53;17.40;99.90
24011;DHT22;12217;50.792;4.372;2023-08-01T02:03:18;17.50;99.90
24011;DHT22;12217;50.792;4.372;2023-08-01T02:05:44;17.30;99.90
24011;DHT22;12217;50.792;4.372;2023-08-01T02:08:10;17.30;99.90
24011;DHT22;12217;50.792;4.372;2023-08-01T02:10:36;17.20;99.90
24011;DHT22;12217;50.792;4.372;2023-08-01T02:13:01;17.10;99.90
24011;DHT22;12217;50.792;4.372;2023-08-01T02:15:27;17.20;99.90
24011;DHT22;12217;50.792;4.372;2023-08-01T02:17:52;17.30;99.90
24011;DHT22;12217;50.792;4.372;2023-08-01T02:20:18;17.20;99.90
24011;DHT22;12217;50.792;4.372;2023-08-01T02:22:44;17.10;99.90
24011;DHT22;12217;50.792;4.372;2023-08-01T02:25:09;17.00;99.90
24011;DHT22;12217;50.792;4.372;2023-08-01T02:27:35;17.10;99.90
24011;DHT22;12217;50.792;4.372;2023-08-01T02:30:00;17.00;99.90
24011;DHT22;12217;50.792;4.372;2023-08-01T02:32:26;16.80;99.90
24011;DHT22;12217;50.792;4.372;2023-08-01T02:34:51;16.90;99.90
24011;DHT22;12217;50.792;4.372;2023-08-01T02:37:17;16.80;99.90
24011;DHT22;12217;50.792;4.372;2023-08-01T02:39:43;16.80;99.90
24011;DHT22;12217;50.792;4.372;2023-08-01T02:42:08;16.90;99.90
24011;DHT22;12217;50.792;4.372;2023-08-01T02:44:34;16.80;99.90
24011;DHT22;12217;50.792;4.372;2023-08-01T02:46:59;16.70;99.90
24011;DHT22;12217;50.792;4.372;2023-08-01T02:49:25;16.80;99.90
24011;DHT22;12217;50.792;4.372;2023-08-01T02:51:51;16.70;99.90
24011;DHT22;12217;50.792;4.372;2023-08-01T02:54:16;16.80;99.90
24011;DHT22;12217;50.792;4.372;2023-08-01T02:56:42;16.90;99.90
24011;DHT22;12217;50.792;4.372;2023-08-01T02:59:08;16.90;99.90
24011;DHT22;12217;50.792;4.372;2023-08-01T03:01:37;17.00;99.90
24011;DHT22;12217;50.792;4.372;2023-08-01T03:04:04;16.90;99.90
24011;DHT22;12217;50.792;4.372;2023-08-01T03:06:33;16.90;99.90
24011;DHT22;12217;50.792;4.372;2023-08-01T03:08:59;16.90;99.90
24011;DHT22;12217;50.792;4.372;2023-08-01T03:11:25;16.70;99.90
24011;DHT22;12217;50.792;4.372;2023-08-01T03:13:51;16.70;99.90
24011;DHT22;12217;50.792;4.372;2023-08-01T03:16:17;16.80;99.90
24011;DHT22;12217;50.792;4.372;2023-08-01T03:18:43;16.80;99.90
24011;DHT22;12217;50.792;4.372;2023-08-01T03:21:09;16.80;99.90
24011;DHT22;12217;50.792;4.372;2023-08-01T03:23:34;16.70;99.90
24011;DHT22;12217;50.792;4.372;2023-08-01T03:26:00;16.80;99.90
24011;DHT22;12217;50.792;4.372;2023-08-01T03:28:30;16.80;99.90
24011;DHT22;12217;50.792;4.372;2023-08-01T03:30:56;16.70;99.90
24011;DHT22;12217;50.792;4.372;2023-08-01T03:33:21;16.70;99.90
24011;DHT22;12217;50.792;4.372;2023-08-01T03:35:47;16.60;99.90
24011;DHT22;12217;50.792;4.372;2023-08-01T03:38:13;16.50;99.90
24011;DHT22;12217;50.792;4.372;2023-08-01T03:40:38;16.50;99.90
24011;DHT22;12217;50.792;4.372;2023-08-01T03:43:04;16.60;99.90
24011;DHT22;12217;50.792;4.372;2023-08-01T03:45:30;16.60;99.90
24011;DHT22;12217;50.792;4.372;2023-08-01T03:47:56;16.70;99.90
24011;DHT22;12217;50.792;4.372;2023-08-01T03:50:21;16.70;99.90
24011;DHT22;12217;50.792;4.372;2023-08-01T03:52:47;16.50;99.90
24011;DHT22;12217;50.792;4.372;2023-08-01T03:55:12;16.60;99.90
24011;DHT22;12217;50.792;4.372;2023-08-01T03:57:38;16.60;99.90
24011;DHT22;12217;50.792;4.372;2023-08-01T04:00:06;16.60;99.90
24011;DHT22;12217;50.792;4.372;2023-08-01T04:02:31;16.70;99.90
24011;DHT22;12217;50.792;4.372;2023-08-01T04:04:57;16.60;99.90
24011;DHT22;12217;50.792;4.372;2023-08-01T04:07:23;16.50;99.90
24011;DHT22;12217;50.792;4.372;2023-08-01T04:09:48;16.70;99.90
24011;DHT22;12217;50.792;4.372;2023-08-01T04:12:14;16.60;99.90
24011;DHT22;12217;50.792;4.372;2023-08-01T04:14:39;16.40;99.90
24011;DHT22;12217;50.792;4.372;2023-08-01T04:17:05;16.50;99.90
24011;DHT22;12217;50.792;4.372;2023-08-01T04:19:31;16.50;99.90
24011;DHT22;12217;50.792;4.372;2023-08-01T04:21:56;16.50;99.90
24011;DHT22;12217;50.792;4.372;2023-08-01T04:24:22;16.30;99.90
24011;DHT22;12217;50.792;4.372;2023-08-01T04:26:50;16.20;99.90
24011;DHT22;12217;50.792;4.372;2023-08-01T04:29:16;16.20;99.90
24011;DHT22;12217;50.792;4.372;2023-08-01T04:31:43;16.40;99.90
24011;DHT22;12217;50.792;4.372;2023-08-01T04:34:09;16.40;99.90
24011;DHT22;12217;50.792;4.372;2023-08-01T04:36:34;16.40;99.90
24011;DHT22;12217;50.792;4.372;2023-08-01T04:39:00;16.50;99.90
24011;DHT22;12217;50.792;4.372;2023-08-01T04:41:25;16.30;99.90
24011;DHT22;12217;50.792;4.372;2023-08-01T04:43:51;16.20;99.90
24011;DHT22;12217;50.792;4.372;2023-08-01T04:46:17;16.20;99.90
24011;DHT22;12217;50.792;4.372;2023-08-01T04:48:42;16.20;99.90
24011;DHT22;12217;50.792;4.372;2023-08-01T04:51:08;16.20;99.90
24011;DHT22;12217;50.792;4.372;2023-08-01T04:53:34;16.40;99.90
24011;DHT22;12217;50.792;4.372;2023-08-01T04:55:59;16.20;99.90
24011;DHT22;12217;50.792;4.372;2023-08-01T04:58:25;16.20;99.90
24011;DHT22;12217;50.792;4.372;2023-08-01T05:00:51;16.40;99.90
24011;DHT22;12217;50.792;4.372;2023-08-01T05:03:16;16.40;99.90
24011;DHT22;12217;50.792;4.372;2023-08-01T05:05:42;16.40;99.90
24011;DHT22;12217;50.792;4.372;2023-08-01T05:08:07;16.50;99.90
24011;DHT22;12217;50.792;4.372;2023-08-01T05:10:33;16.50;99.90
24011;DHT22;12217;50.792;4.372;2023-08-01T05:12:59;16.50;99.90
24011;DHT22;12217;50.792;4.372;2023-08-01T05:15:24;16.50;99.90
24011;DHT22;12217;50.792;4.372;2023-08-01T05:17:50;16.60;99.90
24011;DHT22;12217;50.792;4.372;2023-08-01T05:20:15;16.60;99.90
24011;DHT22;12217;50.792;4.372;2023-08-01T05:22:41;16.40;99.90
24011;DHT22;12217;50.792;4.372;2023-08-01T05:25:07;16.40;99.90
24011;DHT22;12217;50.792;4.372;2023-08-01T05:27:32;16.40;99.90
24011;DHT22;12217;50.792;4.372;2023-08-01T05:29:59;16.50;99.90
24011;DHT22;12217;50.792;4.372;2023-08-01T05:32:25;16.40;99.90
24011;DHT22;12217;50.792;4.372;2023-08-01T05:34:50;16.40;99.90
24011;DHT22;12217;50.792;4.372;2023-08-01T05:37:16;16.30;99.90
24011;DHT22;12217;50.792;4.372;2023-08-01T05:39:41;16.40;99.90
24011;DHT22;12217;50.792;4.372;2023-08-01T05:42:07;16.40;99.90
24011;DHT22;12217;50.792;4.372;2023-08-01T05:44:34;16.40;99.90
24011;DHT22;12217;50.792;4.372;2023-08-01T05:46:59;16.50;99.90
24011;DHT22;12217;50.792;4.372;2023-08-01T05:49:25;16.60;99.90
24011;DHT22;12217;50.792;4.372;2023-08-01T05:51:51;16.70;99.90
24011;DHT22;12217;50.792;4.372;2023-08-01T05:54:16;16.80;99.90
24011;DHT22;12217;50.792;4.372;2023-08-01T05:56:42;17.00;99.90
24011;DHT22;12217;50.792;4.372;2023-08-01T05:59:07;16.90;99.90
24011;DHT22;12217;50.792;4.372;2023-08-01T06:01:34;17.00;99.90
24011;DHT22;12217;50.792;4.372;2023-08-01T06:03:59;16.80;99.90
24011;DHT22;12217;50.792;4.372;2023-08-01T06:06:25;17.00;99.90
24011;DHT22;12217;50.792;4.372;2023-08-01T06:08:50;17.00;99.90
24011;DHT22;12217;50.792;4.372;2023-08-01T06:11:17;16.90;99.90
24011;DHT22;12217;50.792;4.372;2023-08-01T06:13:42;16.80;99.90
24011;DHT22;12217;50.792;4.372;2023-08-01T06:16:08;16.70;99.90
24011;DHT22;12217;50.792;4.372;2023-08-01T06:18:33;16.60;99.90
24011;DHT22;12217;50.792;4.372;2023-08-01T06:20:59;16.50;99.90
24011;DHT22;12217;50.792;4.372;2023-08-01T06:23:25;16.30;99.90
24011;DHT22;12217;50.792;4.372;2023-08-01T06:25:50;16.50;99.90
24011;DHT22;12217;50.792;4.372;2023-08-01T06:28:16;16.50;99.90
24011;DHT22;12217;50.792;4.372;2023-08-01T06:30:41;16.70;99.90
24011;DHT22;12217;50.792;4.372;2023-08-01T06:33:07;17.00;99.90
24011;DHT22;12217;50.792;4.372;2023-08-01T06:35:33;17.10;99.90
24011;DHT22;12217;50.792;4.372;2023-08-01T06:37:58;17.20;99.90
24011;DHT22;12217;50.792;4.372;2023-08-01T06:40:24;17.20;99.90
24011;DHT22;12217;50.792;4.372;2023-08-01T06:42:50;17.10;99.90
24011;DHT22;12217;50.792;4.372;2023-08-01T06:45:16;17.10;99.90
24011;DHT22;12217;50.792;4.372;2023-08-01T06:47:42;17.10;99.90
24011;DHT22;12217;50.792;4.372;2023-08-01T06:50:07;17.10;99.90
24011;DHT22;12217;50.792;4.372;2023-08-01T06:52:33;17.10;99.90
24011;DHT22;12217;50.792;4.372;2023-08-01T06:54:59;17.30;99.90
24011;DHT22;12217;50.792;4.372;2023-08-01T06:57:24;17.20;99.90
24011;DHT22;12217;50.792;4.372;2023-08-01T06:59:50;17.30;99.90
24011;DHT22;12217;50.792;4.372;2023-08-01T07:02:15;17.30;99.90
24011;DHT22;12217;50.792;4.372;2023-08-01T07:04:41;17.30;99.90
24011;DHT22;12217;50.792;4.372;2023-08-01T07:07:07;17.40;99.90
24011;DHT22;12217;50.792;4.372;2023-08-01T07:09:34;17.40;99.90
24011;DHT22;12217;50.792;4.372;2023-08-01T07:11:59;17.50;99.90
24011;DHT22;12217;50.792;4.372;2023-08-01T07:14:25;17.70;99.90
24011;DHT22;12217;50.792;4.372;2023-08-01T07:16:51;17.80;99.90
24011;DHT22;12217;50.792;4.372;2023-08-01T07:19:16;17.80;99.90
24011;DHT22;12217;50.792;4.372;2023-08-01T07:21:42;17.80;99.90
24011;DHT22;12217;50.792;4.372;2023-08-01T07:24:09;17.90;99.90
24011;DHT22;12217;50.792;4.372;2023-08-01T07:26:35;17.90;99.90
24011;DHT22;12217;50.792;4.372;2023-08-01T07:29:01;17.80;99.90
24011;DHT22;12217;50.792;4.372;2023-08-01T07:31:26;17.90;99.90
24011;DHT22;12217;50.792;4.372;2023-08-01T07:33:52;18.00;99.90
24011;DHT22;12217;50.792;4.372;2023-08-01T07:36:17;17.90;99.90
24011;DHT22;12217;50.792;4.372;2023-08-01T07:38:43;17.80;99.90
24011;DHT22;12217;50.792;4.372;2023-08-01T07:41:09;17.60;99.90
24011;DHT22;12217;50.792;4.372;2023-08-01T07:43:34;17.50;99.90
24011;DHT22;12217;50.792;4.372;2023-08-01T07:46:00;17.60;99.90
24011;DHT22;12217;50.792;4.372;2023-08-01T07:48:26;17.70;99.90
24011;DHT22;12217;50.792;4.372;2023-08-01T07:50:51;17.90;99.90
24011;DHT22;12217;50.792;4.372;2023-08-01T07:53:17;18.10;99.90
24011;DHT22;12217;50.792;4.372;2023-08-01T07:55:43;18.20;99.90
24011;DHT22;12217;50.792;4.372;2023-08-01T07:58:08;18.30;99.90
24011;DHT22;12217;50.792;4.372;2023-08-01T08:00:37;18.10;99.90
24011;DHT22;12217;50.792;4.372;2023-08-01T08:03:02;18.30;99.90
24011;DHT22;12217;50.792;4.372;2023-08-01T08:05:28;18.30;99.90
24011;DHT22;12217;50.792;4.372;2023-08-01T08:07:54;18.30;99.90
24011;DHT22;12217;50.792;4.372;2023-08-01T08:10:19;18.40;99.90
24011;DHT22;12217;50.792;4.372;2023-08-01T08:12:45;18.60;99.90
24011;DHT22;12217;50.792;4.372;2023-08-01T08:15:11;18.60;99.90
24011;DHT22;12217;50.792;4.372;2023-08-01T08:17:38;18.70;99.90
24011;DHT22;12217;50.792;4.372;2023-08-01T08:20:04;18.80;99.90
24011;DHT22;12217;50.792;4.372;2023-08-01T08:22:31;18.90;99.90
24011;DHT22;12217;50.792;4.372;2023-08-01T08:24:57;19.00;99.90
24011;DHT22;12217;50.792;4.372;2023-08-01T08:27:22;19.10;99.90
24011;DHT22;12217;50.792;4.372;2023-08-01T08:29:48;19.20;99.90
24011;DHT22;12217;50.792;4.372;2023-08-01T08:32:13;19.10;99.90
24011;DHT22;12217;50.792;4.372;2023-08-01T08:34:39;19.10;99.90
24011;DHT22;12217;50.792;4.372;2023-08-01T08:37:05;18.60;99.90
24011;DHT22;12217;50.792;4.372;2023-08-01T08:39:30;18.60;99.90
24011;DHT22;12217;50.792;4.372;2023-08-01T08:41:56;18.50;99.90
24011;DHT22;12217;50.792;4.372;2023-08-01T08:44:22;18.70;99.90
24011;DHT22;12217;50.792;4.372;2023-08-01T08:46:51;19.00;99.90
24011;DHT22;12217;50.792;4.372;2023-08-01T08:49:18;19.10;99.90
24011;DHT22;12217;50.792;4.372;2023-08-01T08:51:46;19.20;99.90
24011;DHT22;12217;50.792;4.372;2023-08-01T08:54:13;19.40;99.90
24011;DHT22;12217;50.792;4.372;2023-08-01T08:56:40;19.30;99.90
24011;DHT22;12217;50.792;4.372;2023-08-01T08:59:07;19.30;99.90
24011;DHT22;12217;50.792;4.372;2023-08-01T09:01:33;19.30;99.90
24011;DHT22;12217;50.792;4.372;2023-08-01T09:03:59;19.40;99.90
24011;DHT22;12217;50.792;4.372;2023-08-01T09:06:29;19.50;99.90
24011;DHT22;12217;50.792;4.372;2023-08-01T09:09:04;19.60;99.90
24011;DHT22;12217;50.792;4.372;2023-08-01T09:11:50;19.70;99.90
24011;DHT22;12217;50.792;4.372;2023-08-01T09:14:17;19.80;99.90
24011;DHT22;12217;50.792;4.372;2023-08-01T09:16:44;19.90;99.90
24011;DHT22;12217;50.792;4.372;2023-08-01T09:19:10;20.00;99.90
24011;DHT22;12217;50.792;4.372;2023-08-01T09:21:39;19.90;99.90
24011;DHT22;12217;50.792;4.372;2023-08-01T09:24:15;20.20;99.90
24011;DHT22;12217;50.792;4.372;2023-08-01T09:26:42;20.30;99.90
24011;DHT22;12217;50.792;4.372;2023-08-01T09:29:08;20.30;99.90
24011;DHT22;12217;50.792;4.372;2023-08-01T09:31:39;20.50;99.90
24011;DHT22;12217;50.792;4.372;2023-08-01T09:34:05;20.40;99.90
24011;DHT22;12217;50.792;4.372;2023-08-01T09:36:32;20.30;99.90
24011;DHT22;12217;50.792;4.372;2023-08-01T09:38:59;20.00;99.90
24011;DHT22;12217;50.792;4.372;2023-08-01T09:41:25;19.80;99.90
24011;DHT22;12217;50.792;4.372;2023-08-01T09:43:51;19.60;99.90
24011;DHT22;12217;50.792;4.372;2023-08-01T09:46:16;19.80;99.90
24011;DHT22;12217;50.792;4.372;2023-08-01T09:48:42;19.90;99.90
24011;DHT22;12217;50.792;4.372;2023-08-01T09:53:35;20.00;99.90
24011;DHT22;12217;50.792;4.372;2023-08-01T09:56:01;19.90;99.90
24011;DHT22;12217;50.792;4.372;2023-08-01T09:58:32;20.10;99.90
24011;DHT22;12217;50.792;4.372;2023-08-01T10:01:00;20.20;99.90
24011;DHT22;12217;50.792;4.372;2023-08-01T10:03:28;20.10;99.90
24011;DHT22;12217;50.792;4.372;2023-08-01T10:05:55;20.20;99.90
24011;DHT22;12217;50.792;4.372;2023-08-01T10:08:22;20.40;99.90
24011;DHT22;12217;50.792;4.372;2023-08-01T10:10:48;20.50;99.90
24011;DHT22;12217;50.792;4.372;2023-08-01T10:13:14;20.90;99.90
24011;DHT22;12217;50.792;4.372;2023-08-01T10:15:40;21.00;99.90
24011;DHT22;12217;50.792;4.372;2023-08-01T10:18:06;21.30;99.90
24011;DHT22;12217;50.792;4.372;2023-08-01T10:20:33;21.70;99.90
24011;DHT22;12217;50.792;4.372;2023-08-01T10:23:00;21.90;99.90
24011;DHT22;12217;50.792;4.372;2023-08-01T10:25:29;21.80;99.90
24011;DHT22;12217;50.792;4.372;2023-08-01T10:28:05;21.60;99.90
24011;DHT22;12217;50.792;4.372;2023-08-01T10:30:31;21.60;99.90
24011;DHT22;12217;50.792;4.372;2023-08-01T10:32:58;21.50;99.90
24011;DHT22;12217;50.792;4.372;2023-08-01T10:35:37;21.40;99.90
24011;DHT22;12217;50.792;4.372;2023-08-01T10:38:08;21.50;99.90
24011;DHT22;12217;50.792;4.372;2023-08-01T10:40:42;21.30;99.90
24011;DHT22;12217;50.792;4.372;2023-08-01T10:43:21;21.00;99.90
24011;DHT22;12217;50.792;4.372;2023-08-01T10:45:47;21.00;99.90
24011;DHT22;12217;50.792;4.372;2023-08-01T10:48:13;21.00;99.90
24011;DHT22;12217;50.792;4.372;2023-08-01T10:50:39;21.10;99.90
24011;DHT22;12217;50.792;4.372;2023-08-01T10:53:09;21.10;99.90
24011;DHT22;12217;50.792;4.372;2023-08-01T10:55:53;21.30;99.90
24011;DHT22;12217;50.792;4.372;2023-08-01T10:58:19;21.40;99.90
24011;DHT22;12217;50.792;4.372;2023-08-01T11:00:44;21.60;99.90
24011;DHT22;12217;50.792;4.372;2023-08-01T11:03:10;21.60;99.90
24011;DHT22;12217;50.792;4.372;2023-08-01T11:05:35;21.60;99.90
24011;DHT22;12217;50.792;4.372;2023-08-01T11:08:02;21.60;99.90
24011;DHT22;12217;50.792;4.372;2023-08-01T11:10:30;21.50;99.90
24011;DHT22;12217;50.792;4.372;2023-08-01T11:12:56;21.60;99.90
24011;DHT22;12217;50.792;4.372;2023-08-01T11:15:22;21.80;99.90
24011;DHT22;12217;50.792;4.372;2023-08-01T11:17:50;21.70;99.90
24011;DHT22;12217;50.792;4.372;2023-08-01T11:22:53;21.90;99.90
24011;DHT22;12217;50.792;4.372;2023-08-01T11:25:20;22.30;99.90
24011;DHT22;12217;50.792;4.372;2023-08-01T11:27:46;22.30;99.90
24011;DHT22;12217;50.792;4.372;2023-08-01T11:30:11;22.50;99.90
24011;DHT22;12217;50.792;4.372;2023-08-01T11:32:38;22.40;99.90
24011;DHT22;12217;50.792;4.372;2023-08-01T11:35:04;22.20;99.90
24011;DHT22;12217;50.792;4.372;2023-08-01T11:37:30;22.00;99.90
24011;DHT22;12217;50.792;4.372;2023-08-01T11:39:57;21.80;99.90
24011;DHT22;12217;50.792;4.372;2023-08-01T11:42:23;21.70;99.90
24011;DHT22;12217;50.792;4.372;2023-08-01T11:44:48;21.70;99.90
24011;DHT22;12217;50.792;4.372;2023-08-01T11:47:15;21.60;99.90
24011;DHT22;12217;50.792;4.372;2023-08-01T11:49:48;21.60;99.90
24011;DHT22;12217;50.792;4.372;2023-08-01T11:52:25;21.40;99.90
24011;DHT22;12217;50.792;4.372;2023-08-01T11:54:51;21.40;99.90
24011;DHT22;12217;50.792;4.372;2023-08-01T11:57:17;21.40;99.90
24011;DHT22;12217;50.792;4.372;2023-08-01T11:59:51;21.60;99.90
24011;DHT22;12217;50.792;4.372;2023-08-01T12:02:24;21.90;99.90
24011;DHT22;12217;50.792;4.372;2023-08-01T12:04:51;22.60;99.90
24011;DHT22;12217;50.792;4.372;2023-08-01T12:07:18;23.00;99.90
24011;DHT22;12217;50.792;4.372;2023-08-01T12:09:46;23.20;99.90
24011;DHT22;12217;50.792;4.372;2023-08-01T12:12:19;23.30;99.90
24011;DHT22;12217;50.792;4.372;2023-08-01T12:14:45;22.80;99.90
24011;DHT22;12217;50.792;4.372;2023-08-01T12:17:10;22.80;99.90
24011;DHT22;12217;50.792;4.372;2023-08-01T12:19:36;22.80;99.90
24011;DHT22;12217;50.792;4.372;2023-08-01T12:22:02;23.40;99.90
24011;DHT22;12217;50.792;4.372;2023-08-01T12:24:27;23.80;99.90
24011;DHT22;12217;50.792;4.372;2023-08-01T12:26:53;24.10;99.90
24011;DHT22;12217;50.792;4.372;2023-08-01T12:29:19;24.10;99.90
24011;DHT22;12217;50.792;4.372;2023-08-01T12:31:44;23.60;99.90
24011;DHT22;12217;50.792;4.372;2023-08-01T12:34:11;23.50;99.90
24011;DHT22;12217;50.792;4.372;2023-08-01T12:36:37;23.10;99.90
24011;DHT22;12217;50.792;4.372;2023-08-01T12:39:02;22.90;99.90
24011;DHT22;12217;50.792;4.372;2023-08-01T12:41:28;22.60;99.90
24011;DHT22;12217;50.792;4.372;2023-08-01T12:43:54;22.60;99.90
24011;DHT22;12217;50.792;4.372;2023-08-01T12:46:19;22.50;99.90
24011;DHT22;12217;50.792;4.372;2023-08-01T12:48:46;22.30;99.90
24011;DHT22;12217;50.792;4.372;2023-08-01T12:51:12;22.00;99.90
24011;DHT22;12217;50.792;4.372;2023-08-01T12:53:39;21.90;99.90
24011;DHT22;12217;50.792;4.372;2023-08-01T12:56:05;22.00;99.90
24011;DHT22;12217;50.792;4.372;2023-08-01T12:58:31;21.90;99.90
24011;DHT22;12217;50.792;4.372;2023-08-01T13:00:57;21.90;99.90
24011;DHT22;12217;50.792;4.372;2023-08-01T13:03:22;21.60;99.90
24011;DHT22;12217;50.792;4.372;2023-08-01T13:05:48;21.70;99.90
24011;DHT22;12217;50.792;4.372;2023-08-01T13:08:13;21.70;99.90
24011;DHT22;12217;50.792;4.372;2023-08-01T13:10:39;21.80;99.90
24011;DHT22;12217;50.792;4.372;2023-08-01T13:13:06;21.90;99.90
24011;DHT22;12217;50.792;4.372;2023-08-01T13:15:31;21.90;99.90
24011;DHT22;12217;50.792;4.372;2023-08-01T13:17:57;22.10;99.90
24011;DHT22;12217;50.792;4.372;2023-08-01T13:20:23;22.30;99.90
24011;DHT22;12217;50.792;4.372;2023-08-01T13:22:50;22.20;99.90
24011;DHT22;12217;50.792;4.372;2023-08-01T13:25:16;22.30;99.90
24011;DHT22;12217;50.792;4.372;2023-08-01T13:27:42;22.30;99.90
24011;DHT22;12217;50.792;4.372;2023-08-01T13:30:09;22.30;99.90
24011;DHT22;12217;50.792;4.372;2023-08-01T13:32:35;22.30;99.90
24011;DHT22;12217;50.792;4.372;2023-08-01T13:35:01;22.40;99.90
24011;DHT22;12217;50.792;4.372;2023-08-01T13:37:26;22.30;99.90
24011;DHT22;12217;50.792;4.372;2023-08-01T13:39:54;22.50;99.90
24011;DHT22;12217;50.792;4.372;2023-08-01T13:42:20;22.20;99.90
24011;DHT22;12217;50.792;4.372;2023-08-01T13:44:45;22.30;99.90
24011;DHT22;12217;50.792;4.372;2023-08-01T13:47:11;22.20;99.90
24011;DHT22;12217;50.792;4.372;2023-08-01T13:49:36;22.10;99.90
24011;DHT22;12217;50.792;4.372;2023-08-01T13:52:03;22.20;99.90
24011;DHT22;12217;50.792;4.372;2023-08-01T13:54:29;22.80;99.90
24011;DHT22;12217;50.792;4.372;2023-08-01T13:56:55;23.10;99.90
24011;DHT22;12217;50.792;4.372;2023-08-01T13:59:21;23.40;99.90
24011;DHT22;12217;50.792;4.372;2023-08-01T14:01:46;23.40;99.90
24011;DHT22;12217;50.792;4.372;2023-08-01T14:04:12;23.20;99.90
24011;DHT22;12217;50.792;4.372;2023-08-01T14:06:40;23.30;99.90
24011;DHT22;12217;50.792;4.372;2023-08-01T14:09:07;23.30;99.90
24011;DHT22;12217;50.792;4.372;2023-08-01T14:11:34;23.60;99.90
24011;DHT22;12217;50.792;4.372;2023-08-01T14:13:59;23.60;99.90
24011;DHT22;12217;50.792;4.372;2023-08-01T14:16:25;23.20;99.90
24011;DHT22;12217;50.792;4.372;2023-08-01T14:18:51;22.60;99.90
24011;DHT22;12217;50.792;4.372;2023-08-01T14:21:16;22.30;99.90
24011;DHT22;12217;50.792;4.372;2023-08-01T14:23:42;22.00;99.90
24011;DHT22;12217;50.792;4.372;2023-08-01T14:26:08;21.90;99.90
24011;DHT22;12217;50.792;4.372;2023-08-01T14:28:33;21.80;99.90
24011;DHT22;12217;50.792;4.372;2023-08-01T14:31:03;21.70;99.90
24011;DHT22;12217;50.792;4.372;2023-08-01T14:33:29;21.70;99.90
24011;DHT22;12217;50.792;4.372;2023-08-01T14:35:56;21.70;99.90
24011;DHT22;12217;50.792;4.372;2023-08-01T14:38:22;21.60;99.90
24011;DHT22;12217;50.792;4.372;2023-08-01T14:40:47;21.50;99.90
24011;DHT22;12217;50.792;4.372;2023-08-01T14:43:13;21.60;99.90
24011;DHT22;12217;50.792;4.372;2023-08-01T14:45:41;21.60;99.90
24011;DHT22;12217;50.792;4.372;2023-08-01T14:48:08;21.70;99.90
24011;DHT22;12217;50.792;4.372;2023-08-01T14:50:34;21.80;99.90
24011;DHT22;12217;50.792;4.372;2023-08-01T14:53:01;21.90;99.90
24011;DHT22;12217;50.792;4.372;2023-08-01T14:55:27;21.90;99.90
24011;DHT22;12217;50.792;4.372;2023-08-01T14:57:52;21.60;99.90
24011;DHT22;12217;50.792;4.372;2023-08-01T15:00:18;21.50;99.90
24011;DHT22;12217;50.792;4.372;2023-08-01T15:02:44;21.40;99.90
24011;DHT22;12217;50.792;4.372;2023-08-01T15:05:09;21.20;99.90
24011;DHT22;12217;50.792;4.372;2023-08-01T15:07:35;21.20;99.90
24011;DHT22;12217;50.792;4.372;2023-08-01T15:10:00;21.30;99.90
24011;DHT22;12217;50.792;4.372;2023-08-01T15:12:26;21.20;99.90
24011;DHT22;12217;50.792;4.372;2023-08-01T15:14:55;21.10;99.90
24011;DHT22;12217;50.792;4.372;2023-08-01T15:17:25;21.10;99.90
24011;DHT22;12217;50.792;4.372;2023-08-01T15:19:50;21.20;99.90
24011;DHT22;12217;50.792;4.372;2023-08-01T15:22:18;21.10;99.90
24011;DHT22;12217;50.792;4.372;2023-08-01T15:24:44;21.00;99.90
24011;DHT22;12217;50.792;4.372;2023-08-01T15:27:09;21.10;99.90
24011;DHT22;12217;50.792;4.372;2023-08-01T15:29:35;21.10;99.90